Time;durP1;ratioP1;P1;durP2;ratioP2;P2;SDS_P1;SDS_P2;PMS_P1;PMS_P2;Temp;Humidity;BMP_temperature;BMP_pressure;BME280_temperature;BME280_humidity;BME280_pressure;Samples;Min_cycle;Max_cycle;Signal;HPM_P1;HPM_P2
2023/10/22 00:01:47;;;;;;;6.20;1.50;;;12.80;98.30;;;;;;5049473;28;21022;-62
2023/10/22 00:04:14;;;;;;;5.10;1.40;;;12.70;98.10;;;;;;5052277;28;20582;-62
2023/10/22 00:06:43;;;;;;;3.83;1.40;;;12.70;98.10;;;;;;5049307;28;20485;-64
2023/10/22 00:09:09;;;;;;;3.23;1.80;;;12.70;98.40;;;;;;5050492;28;21228;-63
2023/10/22 00:11:36;;;;;;;3.50;1.03;;;12.70;98.40;;;;;;5049788;28;20479;-62
2023/10/22 00:14:03;;;;;;;3.10;1.30;;;12.70;98.40;;;;;;5048430;28;20890;-62
2023/10/22 00:16:30;;;;;;;5.80;2.10;;;;;;;;;;5045010;28;21189;-61
2023/10/22 00:18:57;;;;;;;5.33;1.20;;;12.60;98.20;;;;;;5074169;28;20478;-62
2023/10/22 00:21:23;;;;;;;12.93;1.20;;;12.60;98.60;;;;;;5050843;28;20474;-62
2023/10/22 00:23:51;;;;;;;6.03;1.53;;;12.60;98.50;;;;;;5049591;28;21073;-62
2023/10/22 00:26:18;;;;;;;1.90;0.83;;;12.40;98.80;;;;;;5049617;28;20582;-63
2023/10/22 00:28:45;;;;;;;4.90;1.20;;;12.40;98.70;;;;;;5050965;28;20851;-63
2023/10/22 00:31:12;;;;;;;4.50;1.00;;;12.50;99.00;;;;;;5051385;28;20574;-62
2023/10/22 00:33:38;;;;;;;11.23;1.57;;;12.30;99.10;;;;;;5050771;28;20479;-62
2023/10/22 00:36:06;;;;;;;1.73;0.80;;;12.30;99.10;;;;;;5050562;28;20566;-62
2023/10/22 00:38:33;;;;;;;13.83;1.23;;;12.20;99.30;;;;;;5048846;28;20866;-63
2023/10/22 00:41:01;;;;;;;6.17;0.93;;;12.20;99.40;;;;;;5061628;28;20893;-63
2023/10/22 00:43:27;;;;;;;3.93;1.37;;;11.90;99.50;;;;;;5047627;28;20474;-61
2023/10/22 00:45:55;;;;;;;3.60;1.00;;;12.10;99.50;;;;;;5044960;28;20489;-63
2023/10/22 00:48:22;;;;;;;2.10;1.07;;;12.00;99.80;;;;;;5051057;28;21065;-63
2023/10/22 00:50:49;;;;;;;2.70;1.20;;;12.10;99.90;;;;;;5051088;28;20993;-63
2023/10/22 00:53:17;;;;;;;6.13;1.67;;;12.10;99.80;;;;;;5053300;28;20483;-61
2023/10/22 00:55:46;;;;;;;6.50;1.17;;;12.10;99.80;;;;;;5053463;28;21005;-63
2023/10/22 00:58:16;;;;;;;2.60;1.23;;;12.10;99.90;;;;;;5055488;28;20573;-61
2023/10/22 01:00:44;;;;;;;5.60;1.37;;;12.00;99.90;;;;;;5055324;28;20454;-63
2023/10/22 01:03:11;;;;;;;3.30;1.53;;;11.90;99.90;;;;;;5048254;28;20558;-62
2023/10/22 01:05:38;;;;;;;7.33;2.10;;;11.90;99.90;;;;;;5046987;28;20492;-62
2023/10/22 01:08:06;;;;;;;2.63;1.30;;;11.90;99.90;;;;;;5050686;28;20582;-61
2023/10/22 01:10:33;;;;;;;4.20;1.63;;;12.00;99.90;;;;;;5050138;28;20561;-63
2023/10/22 01:13:00;;;;;;;4.10;1.87;;;12.00;99.90;;;;;;5067196;27;20586;-63
2023/10/22 01:15:28;;;;;;;2.50;1.23;;;12.00;99.90;;;;;;5050408;28;20561;-61
2023/10/22 01:17:55;;;;;;;6.40;1.40;;;12.00;99.90;;;;;;5049331;28;20467;-62
2023/10/22 01:20:23;;;;;;;10.40;2.13;;;12.00;99.90;;;;;;5052709;28;20471;-64
2023/10/22 01:22:49;;;;;;;1.70;0.80;;;12.00;99.90;;;;;;5050879;28;20487;-63
2023/10/22 01:25:18;;;;;;;6.80;1.93;;;11.90;99.90;;;;;;5051878;28;20482;-63
2023/10/22 01:27:44;;;;;;;2.13;1.00;;;11.90;99.90;;;;;;5075705;28;20494;-65
2023/10/22 01:30:12;;;;;;;6.07;2.17;;;11.80;99.90;;;;;;5050366;28;20482;-61
2023/10/22 01:32:38;;;;;;;7.03;2.50;;;11.90;99.90;;;;;;5051660;28;20606;-63
2023/10/22 01:35:06;;;;;;;2.37;1.27;;;11.80;99.90;;;;;;5050354;28;20561;-63
2023/10/22 01:37:36;;;;;;;4.33;1.73;;;11.90;99.90;;;;;;5048506;28;20625;-62
2023/10/22 01:40:03;;;;;;;4.60;2.00;;;12.00;99.90;;;;;;5051320;28;20540;-63
2023/10/22 01:42:32;;;;;;;7.23;1.60;;;12.10;99.90;;;;;;5050657;28;20483;-63
2023/10/22 01:44:59;;;;;;;5.83;1.53;;;12.10;99.90;;;;;;5049956;28;20475;-63
2023/10/22 01:47:25;;;;;;;9.80;1.70;;;12.20;99.90;;;;;;5051205;28;20899;-62
2023/10/22 01:49:52;;;;;;;5.33;1.37;;;12.10;99.90;;;;;;5051493;28;21007;-62
2023/10/22 01:52:19;;;;;;;1.57;0.60;;;12.10;99.90;;;;;;5050846;28;20490;-62
2023/10/22 01:54:45;;;;;;;8.10;1.67;;;12.10;99.90;;;;;;5049928;28;20475;-62
2023/10/22 01:57:12;;;;;;;7.57;2.00;;;12.10;99.90;;;;;;5059299;28;20562;-62
2023/10/22 01:59:41;;;;;;;10.57;1.40;;;12.10;99.90;;;;;;5060842;28;20474;-63
2023/10/22 02:02:08;;;;;;;3.57;1.20;;;12.10;99.90;;;;;;5060458;28;20540;-61
2023/10/22 02:04:35;;;;;;;4.50;1.13;;;12.10;99.90;;;;;;5058831;28;20562;-63
2023/10/22 02:07:01;;;;;;;8.70;1.37;;;12.20;99.90;;;;;;5058559;28;21052;-62
2023/10/22 02:09:28;;;;;;;2.07;1.00;;;12.20;99.90;;;;;;5060151;28;20978;-62
2023/10/22 02:11:55;;;;;;;2.37;0.73;;;12.10;99.90;;;;;;5061386;28;20475;-61
2023/10/22 02:14:22;;;;;;;11.30;1.63;;;12.00;99.90;;;;;;5049372;28;20483;-63
2023/10/22 02:16:50;;;;;;;8.63;1.20;;;12.10;99.90;;;;;;5058402;28;21268;-62
2023/10/22 02:19:17;;;;;;;2.00;1.07;;;12.20;99.90;;;;;;5062145;28;20478;-62
2023/10/22 02:21:44;;;;;;;3.93;0.70;;;;;;;;;;5060550;28;21415;-62
2023/10/22 02:24:11;;;;;;;3.10;0.97;;;12.10;99.90;;;;;;5076066;28;20545;-62
2023/10/22 02:26:44;;;;;;;2.47;0.90;;;12.10;99.90;;;;;;5059228;28;20491;-61
2023/10/22 02:29:11;;;;;;;4.53;1.90;;;12.20;99.90;;;;;;5059421;28;20592;-61
2023/10/22 02:31:37;;;;;;;2.67;1.10;;;12.20;99.90;;;;;;5060592;28;20612;-63
2023/10/22 02:34:07;;;;;;;14.53;1.80;;;12.20;99.90;;;;;;5058882;28;20555;-62
2023/10/22 02:36:34;;;;;;;3.70;1.10;;;12.20;99.90;;;;;;5058569;28;21079;-61
2023/10/22 02:39:04;;;;;;;14.63;1.70;;;12.20;99.90;;;;;;5058346;28;20479;-62
2023/10/22 02:41:31;;;;;;;11.97;1.53;;;12.20;99.90;;;;;;5059776;28;20902;-62
2023/10/22 02:43:59;;;;;;;2.80;1.50;;;12.20;99.90;;;;;;5060574;28;20475;-61
2023/10/22 02:46:26;;;;;;;1.90;1.00;;;12.20;99.90;;;;;;5059524;28;20478;-62
2023/10/22 02:48:52;;;;;;;24.87;2.47;;;12.10;99.90;;;;;;5060706;28;20478;-62
2023/10/22 02:51:22;;;;;;;9.90;1.77;;;12.00;99.90;;;;;;5059964;28;20483;-62
2023/10/22 02:53:49;;;;;;;2.97;0.80;;;12.10;99.90;;;;;;5060662;28;20483;-62
2023/10/22 02:56:16;;;;;;;3.17;1.00;;;12.10;99.90;;;;;;5060440;28;20956;-61
2023/10/22 02:58:42;;;;;;;3.33;0.80;;;12.10;99.90;;;;;;5059756;28;20483;-67
2023/10/22 03:01:11;;;;;;;2.97;0.97;;;12.10;99.90;;;;;;5057202;28;20486;-67
2023/10/22 03:03:40;;;;;;;7.60;1.90;;;12.00;99.90;;;;;;5058092;28;20483;-67
2023/10/22 03:06:07;;;;;;;1.70;0.70;;;12.00;99.90;;;;;;5048181;28;20475;-67
2023/10/22 03:08:37;;;;;;;4.97;1.60;;;11.80;99.90;;;;;;5055513;28;20470;-65
2023/10/22 03:11:04;;;;;;;2.43;0.90;;;12.00;99.90;;;;;;5064708;28;21015;-68
2023/10/22 03:13:32;;;;;;;7.93;1.50;;;12.00;99.90;;;;;;5045473;28;20490;-66
2023/10/22 03:16:07;;;;;;;8.80;1.83;;;12.00;99.90;;;;;;5070107;28;21053;-66
2023/10/22 03:18:34;;;;;;;4.30;1.03;;;12.10;99.90;;;;;;5060574;28;20553;-61
2023/10/22 03:21:00;;;;;;;4.40;1.43;;;12.00;99.90;;;;;;5070251;28;20557;-61
2023/10/22 03:23:34;;;;;;;20.73;2.30;;;12.00;99.90;;;;;;5058764;28;20566;-61
2023/10/22 03:26:06;;;;;;;4.13;1.57;;;11.90;99.90;;;;;;5057568;28;20485;-63
2023/10/22 03:28:33;;;;;;;4.97;1.50;;;11.90;99.90;;;;;;5058423;28;20565;-61
2023/10/22 03:31:03;;;;;;;8.10;1.10;;;11.90;99.90;;;;;;5059814;28;20507;-61
2023/10/22 03:33:30;;;;;;;3.30;1.00;;;12.00;99.90;;;;;;5058715;28;20483;-62
2023/10/22 03:35:58;;;;;;;6.63;1.20;;;;;;;;;;5057063;28;21096;-62
2023/10/22 03:38:25;;;;;;;10.03;1.30;;;11.80;99.90;;;;;;5080943;28;20488;-61
2023/10/22 03:40:57;;;;;;;3.53;1.40;;;11.80;99.90;;;;;;5059165;28;20550;-61
2023/10/22 03:43:26;;;;;;;6.00;1.20;;;11.80;99.90;;;;;;5058966;28;20825;-62
2023/10/22 03:45:54;;;;;;;3.10;1.20;;;11.80;99.90;;;;;;5066832;28;20473;-62
2023/10/22 03:48:21;;;;;;;2.10;1.03;;;11.70;99.90;;;;;;5069143;28;20574;-61
2023/10/22 03:50:48;;;;;;;6.83;2.30;;;11.80;99.90;;;;;;5057317;28;20994;-62
2023/10/22 03:53:15;;;;;;;8.03;1.40;;;11.70;99.90;;;;;;5076565;28;20560;-63
2023/10/22 03:55:42;;;;;;;6.90;1.47;;;11.80;99.90;;;;;;5063000;28;20593;-61
2023/10/22 03:58:09;;;;;;;16.63;1.60;;;11.70;99.90;;;;;;5058907;28;20500;-61
2023/10/22 04:00:37;;;;;;;3.40;1.20;;;11.70;99.90;;;;;;5053315;28;20852;-63
2023/10/22 04:03:04;;;;;;;6.30;1.27;;;11.70;99.90;;;;;;5059577;28;20502;-61
2023/10/22 04:05:31;;;;;;;5.23;1.50;;;11.70;99.90;;;;;;5057392;28;21047;-62
2023/10/22 04:07:58;;;;;;;4.13;1.10;;;11.70;99.90;;;;;;5058558;28;20494;-69
2023/10/22 04:10:25;;;;;;;12.03;1.67;;;11.70;99.90;;;;;;5056021;28;20532;-66
2023/10/22 04:12:52;;;;;;;14.13;1.27;;;11.80;99.90;;;;;;5055759;28;21003;-68
2023/10/22 04:15:19;;;;;;;5.90;1.47;;;11.80;99.90;;;;;;5058243;28;20582;-68
2023/10/22 04:17:47;;;;;;;13.33;1.47;;;11.80;99.90;;;;;;5058007;28;20574;-66
2023/10/22 04:20:14;;;;;;;8.03;1.37;;;11.80;99.90;;;;;;5059150;28;20483;-69
2023/10/22 04:22:43;;;;;;;4.30;1.20;;;11.90;99.90;;;;;;5057870;28;20550;-67
2023/10/22 04:25:10;;;;;;;3.60;1.20;;;11.80;99.90;;;;;;5058635;28;20483;-65
2023/10/22 04:27:37;;;;;;;9.70;1.70;;;11.80;99.90;;;;;;5063197;28;20565;-62
2023/10/22 04:30:07;;;;;;;15.00;1.60;;;11.80;99.90;;;;;;5066847;28;20482;-60
2023/10/22 04:32:36;;;;;;;10.03;1.80;;;11.80;99.90;;;;;;5065495;28;20503;-61
2023/10/22 04:35:05;;;;;;;5.70;1.57;;;11.80;99.90;;;;;;5055983;28;20558;-63
2023/10/22 04:37:32;;;;;;;8.83;1.37;;;11.70;99.90;;;;;;5074572;28;20595;-63
2023/10/22 04:39:59;;;;;;;6.17;1.77;;;11.80;99.90;;;;;;5065394;28;20561;-61
2023/10/22 04:42:26;;;;;;;3.10;1.20;;;11.80;99.90;;;;;;5064369;28;20941;-61
2023/10/22 04:44:52;;;;;;;3.97;1.00;;;11.80;99.90;;;;;;5062952;28;20588;-62
2023/10/22 04:47:20;;;;;;;5.30;1.43;;;11.80;99.90;;;;;;5064629;28;20474;-63
2023/10/22 04:49:49;;;;;;;1.60;0.70;;;11.80;99.90;;;;;;5064535;28;20573;-61
2023/10/22 04:52:22;;;;;;;21.37;1.90;;;11.90;99.90;;;;;;5065406;28;20478;-62
2023/10/22 04:54:49;;;;;;;3.33;1.40;;;11.90;99.90;;;;;;5065429;28;20481;-62
2023/10/22 04:57:17;;;;;;;3.40;1.00;;;11.90;99.90;;;;;;5064927;28;20483;-63
2023/10/22 04:59:44;;;;;;;7.20;1.40;;;11.90;99.90;;;;;;5064732;28;20478;-61
2023/10/22 05:02:11;;;;;;;4.20;1.60;;;11.90;99.90;;;;;;5065130;28;20479;-62
2023/10/22 05:04:37;;;;;;;3.03;1.63;;;12.00;99.90;;;;;;5065125;28;20467;-62
2023/10/22 05:07:04;;;;;;;2.23;1.00;;;11.90;99.90;;;;;;5065300;28;21048;-61
2023/10/22 05:09:33;;;;;;;4.97;1.63;;;11.90;99.90;;;;;;5065076;28;20574;-63
2023/10/22 05:12:00;;;;;;;3.17;1.27;;;11.80;99.90;;;;;;5065692;28;20566;-60
2023/10/22 05:14:27;;;;;;;4.13;1.20;;;11.70;99.90;;;;;;5056933;28;20472;-62
2023/10/22 05:16:54;;;;;;;8.50;1.20;;;11.80;99.90;;;;;;5069640;28;20517;-64
2023/10/22 05:19:20;;;;;;;6.87;0.87;;;11.80;99.90;;;;;;5066016;28;20566;-62
2023/10/22 05:21:47;;;;;;;3.03;1.37;;;11.80;99.90;;;;;;5064371;28;20478;-63
2023/10/22 05:24:14;;;;;;;11.13;1.63;;;11.80;99.90;;;;;;5064620;28;20565;-62
2023/10/22 05:26:42;;;;;;;26.83;2.20;;;11.80;99.90;;;;;;5058516;28;20501;-62
2023/10/22 05:29:09;;;;;;;8.70;1.63;;;11.80;99.90;;;;;;5055682;28;20547;-61
2023/10/22 05:31:35;;;;;;;3.50;1.20;;;11.80;99.90;;;;;;5089603;28;20889;-61
2023/10/22 05:34:02;;;;;;;13.90;1.40;;;11.70;99.90;;;;;;5087320;28;20541;-62
2023/10/22 05:36:29;;;;;;;13.03;1.90;;;11.80;99.90;;;;;;5086108;28;20565;-62
2023/10/22 05:38:56;;;;;;;3.57;1.50;;;11.80;99.90;;;;;;5060195;28;20640;-62
2023/10/22 05:41:25;;;;;;;5.50;2.00;;;11.70;99.90;;;;;;5078828;28;20472;-62
2023/10/22 05:43:56;;;;;;;5.23;1.73;;;11.80;99.90;;;;;;5061635;28;20997;-62
2023/10/22 05:46:23;;;;;;;2.30;0.90;;;11.90;99.90;;;;;;5060266;28;20502;-63
2023/10/22 05:48:50;;;;;;;6.90;1.73;;;11.90;99.90;;;;;;5061801;28;20487;-62
2023/10/22 05:51:17;;;;;;;5.83;1.20;;;11.90;99.90;;;;;;5061465;28;20493;-62
2023/10/22 05:53:44;;;;;;;25.03;2.73;;;11.90;99.90;;;;;;5056191;28;20508;-63
2023/10/22 05:56:10;;;;;;;8.23;1.10;;;11.90;99.90;;;;;;5084745;28;20489;-62
2023/10/22 05:58:38;;;;;;;2.67;1.20;;;11.90;99.90;;;;;;5072380;28;20478;-62
2023/10/22 06:01:06;;;;;;;12.67;1.33;;;11.90;99.90;;;;;;5058409;28;20902;-62
2023/10/22 06:03:33;;;;;;;12.70;1.27;;;11.90;99.90;;;;;;5058916;28;20558;-61
2023/10/22 06:06:00;;;;;;;10.63;1.77;;;11.90;99.90;;;;;;5060211;28;20716;-62
2023/10/22 06:08:27;;;;;;;10.10;1.80;;;12.00;99.90;;;;;;5061355;28;20896;-63
2023/10/22 06:10:53;;;;;;;8.80;2.10;;;12.00;99.90;;;;;;5058958;28;20542;-62
2023/10/22 06:13:20;;;;;;;3.87;1.00;;;12.00;99.90;;;;;;5061634;28;20482;-63
2023/10/22 06:15:47;;;;;;;4.37;1.57;;;12.10;99.90;;;;;;5058701;28;20567;-61
2023/10/22 06:18:15;;;;;;;5.17;1.37;;;12.20;99.90;;;;;;5060433;28;20466;-62
2023/10/22 06:20:42;;;;;;;12.90;1.77;;;12.10;99.90;;;;;;5059869;28;20587;-62
2023/10/22 06:23:09;;;;;;;16.43;1.63;;;12.20;99.90;;;;;;5056836;28;20858;-61
2023/10/22 06:25:36;;;;;;;4.20;1.50;;;12.20;99.90;;;;;;5057744;28;20481;-63
2023/10/22 06:28:03;;;;;;;7.77;1.30;;;;;;;;;;5067295;28;21021;-61
2023/10/22 06:30:30;;;;;;;15.90;2.57;;;12.30;99.90;;;;;;5060380;28;21027;-61
2023/10/22 06:32:58;;;;;;;11.60;1.30;;;12.40;99.90;;;;;;5059417;28;20481;-61
2023/10/22 06:35:29;;;;;;;13.13;1.90;;;12.40;99.90;;;;;;5059643;28;20533;-61
2023/10/22 06:37:56;;;;;;;3.07;1.30;;;12.40;99.90;;;;;;5059667;28;20871;-67
2023/10/22 06:40:24;;;;;;;3.07;1.27;;;12.50;99.90;;;;;;5059968;28;20970;-66
2023/10/22 06:42:51;;;;;;;6.07;1.03;;;12.50;99.90;;;;;;5060728;28;20912;-66
2023/10/22 06:45:19;;;;;;;4.87;1.37;;;12.60;99.90;;;;;;5060011;28;20506;-67
2023/10/22 06:47:46;;;;;;;15.00;2.43;;;12.70;99.90;;;;;;5059160;28;20671;-66
2023/10/22 06:50:14;;;;;;;3.03;1.10;;;12.70;99.90;;;;;;5060250;28;20579;-67
2023/10/22 06:52:42;;;;;;;2.60;1.87;;;12.70;99.90;;;;;;5059973;28;20507;-66
2023/10/22 06:55:09;;;;;;;3.30;1.50;;;12.70;99.90;;;;;;5060574;28;20475;-66
2023/10/22 06:57:36;;;;;;;10.33;1.67;;;12.70;99.90;;;;;;5055353;28;20581;-67
2023/10/22 07:00:04;;;;;;;3.80;1.37;;;12.70;99.90;;;;;;5060847;28;21090;-67
2023/10/22 07:02:33;;;;;;;14.33;1.80;;;12.90;99.90;;;;;;5059974;28;20569;-67
2023/10/22 07:05:00;;;;;;;3.37;1.20;;;12.90;99.90;;;;;;5059159;28;20509;-67
2023/10/22 07:07:27;;;;;;;6.20;1.43;;;13.10;99.90;;;;;;5058707;28;20482;-66
2023/10/22 07:09:55;;;;;;;6.53;1.30;;;13.30;99.90;;;;;;5057898;28;20637;-68
2023/10/22 07:12:22;;;;;;;4.03;1.47;;;13.40;99.90;;;;;;5056769;28;20568;-66
2023/10/22 07:14:49;;;;;;;2.10;1.03;;;13.50;99.90;;;;;;5058310;28;20486;-67
2023/10/22 07:17:16;;;;;;;3.63;1.00;;;13.80;99.90;;;;;;5059490;28;20582;-67
2023/10/22 07:19:42;;;;;;;11.73;2.00;;;13.70;99.90;;;;;;5059354;28;20574;-68
2023/10/22 07:22:09;;;;;;;5.40;1.57;;;13.60;99.90;;;;;;5055597;28;20799;-69
2023/10/22 07:24:36;;;;;;;6.10;1.10;;;13.60;99.90;;;;;;5063467;28;20480;-67
2023/10/22 07:27:04;;;;;;;5.13;1.43;;;13.40;99.90;;;;;;5074544;28;20475;-69
2023/10/22 07:29:31;;;;;;;2.80;1.20;;;13.30;99.90;;;;;;5060054;28;20501;-67
2023/10/22 07:31:58;;;;;;;11.43;1.57;;;13.20;99.90;;;;;;5058146;28;20573;-66
2023/10/22 07:34:25;;;;;;;4.20;1.33;;;13.20;99.90;;;;;;5059005;28;20471;-68
2023/10/22 07:36:52;;;;;;;4.53;1.40;;;;;;;;;;5059560;28;20487;-67
2023/10/22 07:39:19;;;;;;;12.20;1.77;;;12.80;99.90;;;;;;5058566;28;20574;-63
2023/10/22 07:41:45;;;;;;;4.27;1.60;;;12.80;99.90;;;;;;5057420;28;20557;-62
2023/10/22 07:44:13;;;;;;;11.57;2.50;;;12.80;99.90;;;;;;5056742;28;20590;-62
2023/10/22 07:46:41;;;;;;;6.20;1.87;;;13.00;99.90;;;;;;5058512;28;20546;-62
2023/10/22 07:49:08;;;;;;;3.77;1.10;;;12.90;99.90;;;;;;5057742;28;20490;-63
2023/10/22 07:51:35;;;;;;;9.03;1.47;;;13.00;99.90;;;;;;5056812;28;20487;-61
2023/10/22 07:54:02;;;;;;;5.50;1.53;;;13.00;99.90;;;;;;5051674;28;20482;-62
2023/10/22 07:56:29;;;;;;;3.83;1.53;;;13.30;99.90;;;;;;5060515;28;20487;-62
2023/10/22 07:58:55;;;;;;;3.10;1.10;;;13.90;99.90;;;;;;5059715;28;20565;-62
2023/10/22 08:01:23;;;;;;;4.27;1.30;;;14.20;99.90;;;;;;5059051;28;20598;-64
2023/10/22 08:03:50;;;;;;;3.80;1.87;;;14.60;99.70;;;;;;5059292;28;21004;-62
2023/10/22 08:06:17;;;;;;;3.20;1.10;;;15.00;98.70;;;;;;5059977;28;20481;-62
2023/10/22 08:08:44;;;;;;;1.80;0.80;;;15.10;98.00;;;;;;5059128;28;20510;-62
2023/10/22 08:11:11;;;;;;;2.93;1.37;;;15.30;97.80;;;;;;5059661;28;20848;-61
2023/10/22 08:13:38;;;;;;;5.40;1.23;;;15.70;97.30;;;;;;5059108;28;20708;-63
2023/10/22 08:16:05;;;;;;;7.10;1.53;;;16.00;96.90;;;;;;5058779;28;20542;-61
2023/10/22 08:18:34;;;;;;;7.97;1.80;;;15.90;96.60;;;;;;5058434;28;20593;-62
2023/10/22 08:21:02;;;;;;;4.07;1.60;;;15.70;97.10;;;;;;5058972;28;20562;-63
2023/10/22 08:23:30;;;;;;;6.43;1.57;;;15.70;97.20;;;;;;5063169;28;20477;-62
2023/10/22 08:25:57;;;;;;;13.07;2.50;;;15.50;96.60;;;;;;5073918;28;20515;-62
2023/10/22 08:28:24;;;;;;;14.27;2.10;;;15.30;97.00;;;;;;5059366;28;21080;-63
2023/10/22 08:30:51;;;;;;;3.30;1.00;;;15.30;97.60;;;;;;5057899;28;20517;-63
2023/10/22 08:33:18;;;;;;;5.70;1.40;;;15.30;97.80;;;;;;5053412;28;20482;-62
2023/10/22 08:35:46;;;;;;;8.80;1.10;;;15.30;97.80;;;;;;5045367;28;20905;-62
2023/10/22 08:38:14;;;;;;;9.20;1.40;;;15.40;98.00;;;;;;5068382;28;20494;-62
2023/10/22 08:40:43;;;;;;;9.13;1.50;;;15.10;97.70;;;;;;5079595;28;21018;-63
2023/10/22 08:43:16;;;;;;;5.70;1.67;;;15.30;98.20;;;;;;5067330;28;20475;-63
2023/10/22 08:45:46;;;;;;;5.53;1.70;;;;;;;;;;5057180;28;20561;-62
2023/10/22 08:48:14;;;;;;;11.83;1.47;;;14.80;97.70;;;;;;5058446;28;20490;-61
2023/10/22 08:50:44;;;;;;;8.10;1.83;;;14.80;98.10;;;;;;5055969;28;20524;-63
2023/10/22 08:53:15;;;;;;;28.53;3.10;;;14.80;98.10;;;;;;5077374;28;20451;-61
2023/10/22 08:55:44;;;;;;;2.00;1.30;;;14.80;98.90;;;;;;5051214;28;20493;-62
2023/10/22 08:58:14;;;;;;;6.53;1.33;;;14.90;98.80;;;;;;5067592;28;20847;-60
2023/10/22 09:00:45;;;;;;;7.63;2.03;;;14.90;98.40;;;;;;5055447;28;20579;-61
2023/10/22 09:03:11;;;;;;;5.83;1.43;;;15.10;99.00;;;;;;5063592;28;20557;-61
2023/10/22 09:05:39;;;;;;;6.03;1.37;;;15.30;98.70;;;;;;5071164;28;21149;-62
2023/10/22 09:08:06;;;;;;;10.60;1.60;;;15.40;97.90;;;;;;5057841;28;20740;-67
2023/10/22 09:10:36;;;;;;;4.90;1.43;;;15.40;99.00;;;;;;5055744;28;20570;-67
2023/10/22 09:13:15;;;;;;;7.40;1.37;;;15.40;98.60;;;;;;5054582;28;20462;-66
2023/10/22 09:15:44;;;;;;;11.33;2.00;;;15.60;98.70;;;;;;5052343;28;20568;-67
2023/10/22 09:18:11;;;;;;;9.67;1.67;;;15.60;98.80;;;;;;5061456;28;20503;-65
2023/10/22 09:20:39;;;;;;;11.43;1.83;;;15.50;97.60;;;;;;5057880;28;20598;-66
2023/10/22 09:23:14;;;;;;;11.10;1.83;;;15.30;98.20;;;;;;5051079;28;20574;-67
2023/10/22 09:25:42;;;;;;;4.90;2.07;;;15.30;98.70;;;;;;5054526;28;20894;-64
2023/10/22 09:28:14;;;;;;;2.93;1.00;;;15.40;98.80;;;;;;5051391;28;20478;-65
2023/10/22 09:30:41;;;;;;;9.90;2.53;;;15.30;98.20;;;;;;5059776;28;20478;-65
2023/10/22 09:33:08;;;;;;;6.33;1.77;;;15.50;98.80;;;;;;5062067;28;20561;-66
2023/10/22 09:35:35;;;;;;;12.30;2.10;;;15.60;98.30;;;;;;5061398;28;21005;-65
2023/10/22 09:38:02;;;;;;;9.37;1.73;;;15.90;98.80;;;;;;5057339;28;20793;-66
2023/10/22 09:40:33;;;;;;;7.27;2.63;;;15.90;98.90;;;;;;5074030;28;20499;-66
2023/10/22 09:43:04;;;;;;;7.53;1.70;;;15.80;97.90;;;;;;5060638;28;20555;-67
2023/10/22 09:45:32;;;;;;;4.63;1.33;;;15.80;97.70;;;;;;5057509;28;21078;-67
2023/10/22 09:48:04;;;;;;;17.10;2.07;;;15.80;97.70;;;;;;5060859;28;20487;-65
2023/10/22 09:50:31;;;;;;;12.33;1.60;;;15.70;97.70;;;;;;5060418;28;20561;-66
2023/10/22 09:53:00;;;;;;;13.57;3.03;;;15.90;98.00;;;;;;5063680;28;20558;-65
2023/10/22 09:55:29;;;;;;;8.63;1.53;;;15.90;97.20;;;;;;5057902;28;20988;-68
2023/10/22 09:57:55;;;;;;;3.87;1.83;;;16.10;98.20;;;;;;5061621;28;20791;-62
2023/10/22 10:00:24;;;;;;;2.90;1.30;;;16.20;97.70;;;;;;5060158;28;20923;-63
2023/10/22 10:02:51;;;;;;;7.27;1.77;;;16.10;97.40;;;;;;5057776;28;20491;-62
2023/10/22 10:05:21;;;;;;;9.40;2.10;;;16.00;97.50;;;;;;5065991;28;20481;-64
2023/10/22 10:07:48;;;;;;;12.03;2.13;;;16.10;97.40;;;;;;5066747;28;20973;-63
2023/10/22 10:10:15;;;;;;;3.60;1.50;;;16.10;97.30;;;;;;5069592;28;20481;-62
2023/10/22 10:12:42;;;;;;;7.70;2.80;;;16.00;98.40;;;;;;5070607;28;20596;-61
2023/10/22 10:15:30;;;;;;;7.50;2.10;;;16.00;97.00;;;;;;5060194;28;20495;-65
2023/10/22 10:18:00;;;;;;;4.90;1.47;;;16.00;96.90;;;;;;5044050;28;20469;-67
2023/10/22 10:20:30;;;;;;;9.77;3.57;;;15.80;96.90;;;;;;5073388;28;20527;-67
2023/10/22 10:23:04;;;;;;;12.40;1.50;;;15.60;97.10;;;;;;5058033;28;20989;-67
2023/10/22 10:25:32;;;;;;;5.03;1.37;;;15.60;97.50;;;;;;5059551;28;20485;-68
2023/10/22 10:28:04;;;;;;;6.17;2.10;;;15.50;97.50;;;;;;5053230;28;20490;-66
2023/10/22 10:30:31;;;;;;;6.37;1.53;;;15.60;97.70;;;;;;5058990;28;20922;-67
2023/10/22 10:32:59;;;;;;;14.30;1.93;;;15.60;97.60;;;;;;5061991;28;20558;-68
2023/10/22 10:35:28;;;;;;;5.07;1.80;;;15.60;97.70;;;;;;5055963;28;20475;-68
2023/10/22 10:38:17;;;;;;;6.40;1.60;;;15.60;97.30;;;;;;5050398;28;21048;-67
2023/10/22 10:40:45;;;;;;;4.43;1.57;;;15.60;97.30;;;;;;5057987;28;20558;-66
2023/10/22 10:43:12;;;;;;;16.33;2.30;;;15.70;98.10;;;;;;5079186;28;20498;-66
2023/10/22 10:45:41;;;;;;;5.10;1.77;;;15.80;97.30;;;;;;5063077;28;20485;-65
2023/10/22 10:48:47;;;;;;;1.80;0.80;;;15.80;97.30;;;;;;5059621;28;20466;-66
2023/10/22 10:51:19;;;;;;;7.17;2.67;;;15.70;96.70;;;;;;5060004;28;20497;-68
2023/10/22 10:54:14;;;;;;;10.23;1.70;;;15.70;97.40;;;;;;5059261;28;20579;-67
2023/10/22 10:56:52;;;;;;;7.83;1.93;;;15.90;97.50;;;;;;5054656;28;20558;-64
2023/10/22 10:59:27;;;;;;;4.70;1.30;;;15.80;96.60;;;;;;5061064;28;20485;-66
2023/10/22 11:01:59;;;;;;;4.10;1.57;;;16.00;97.70;;;;;;5059340;28;20863;-68
2023/10/22 11:04:28;;;;;;;12.23;2.50;;;16.10;97.20;;;;;;5060076;28;21638;-66
2023/10/22 11:06:55;;;;;;;10.87;1.80;;;16.40;97.20;;;;;;5059738;28;20494;-65
2023/10/22 11:09:22;;;;;;;9.77;2.53;;;16.60;98.40;;;;;;5046986;28;20902;-63
2023/10/22 11:12:00;;;;;;;8.93;1.97;;;16.40;95.70;;;;;;5085077;28;21026;-64
2023/10/22 11:14:27;;;;;;;6.53;2.00;;;16.60;97.00;;;;;;5076621;28;20846;-63
2023/10/22 11:16:56;;;;;;;11.20;2.00;;;16.50;97.10;;;;;;5056215;28;20571;-62
2023/10/22 11:19:24;;;;;;;9.60;2.60;;;16.20;95.60;;;;;;5055112;28;20490;-64
2023/10/22 11:21:54;;;;;;;5.67;1.87;;;16.20;95.30;;;;;;5054340;28;20923;-62
2023/10/22 11:24:22;;;;;;;24.73;2.57;;;16.10;95.80;;;;;;5059327;28;20550;-60
2023/10/22 11:26:50;;;;;;;10.33;1.77;;;16.20;96.20;;;;;;5055699;28;20845;-60
2023/10/22 11:29:17;;;;;;;9.13;2.27;;;16.20;95.30;;;;;;5056615;28;21113;-62
2023/10/22 11:31:54;;;;;;;9.83;2.50;;;16.00;95.50;;;;;;5060105;28;20533;-63
2023/10/22 11:34:21;;;;;;;11.50;1.83;;;15.90;95.30;;;;;;5059869;28;20563;-61
2023/10/22 11:36:48;;;;;;;11.80;1.93;;;16.10;96.60;;;;;;5058450;28;20449;-63
2023/10/22 11:39:18;;;;;;;3.63;1.53;;;16.20;95.70;;;;;;5078179;28;20548;-62
2023/10/22 11:41:44;;;;;;;10.07;1.93;;;16.20;95.40;;;;;;5073783;28;20475;-62
2023/10/22 11:44:28;;;;;;;8.40;2.40;;;16.10;94.80;;;;;;5076786;28;20481;-62
2023/10/22 11:46:55;;;;;;;2.90;1.70;;;15.80;95.40;;;;;;5040335;28;20562;-61
2023/10/22 11:49:22;;;;;;;4.23;2.50;;;15.80;95.80;;;;;;5066946;28;21056;-65
2023/10/22 11:51:49;;;;;;;41.67;3.33;;;16.10;96.10;;;;;;5058798;28;20558;-63
2023/10/22 11:54:17;;;;;;;6.50;2.30;;;16.40;96.30;;;;;;5054974;28;21009;-62
2023/10/22 11:56:44;;;;;;;9.23;2.03;;;16.70;95.80;;;;;;5079003;28;20479;-63
2023/10/22 11:59:11;;;;;;;13.30;2.10;;;16.60;94.80;;;;;;5058768;28;20565;-64
2023/10/22 12:01:40;;;;;;;5.60;2.03;;;16.80;95.20;;;;;;5059067;28;20479;-64
2023/10/22 12:04:07;;;;;;;4.73;1.70;;;16.80;95.50;;;;;;5058108;28;20486;-63
2023/10/22 12:06:34;;;;;;;20.27;3.33;;;17.00;94.20;;;;;;5060694;28;20552;-63
2023/10/22 12:09:03;;;;;;;5.13;3.13;;;16.90;94.30;;;;;;5072110;28;20479;-62
2023/10/22 12:11:31;;;;;;;9.23;1.93;;;16.90;94.60;;;;;;5057699;28;20485;-61
2023/10/22 12:13:58;;;;;;;12.13;3.07;;;16.90;94.20;;;;;;5058622;28;20606;-60
2023/10/22 12:16:24;;;;;;;14.17;2.37;;;17.00;94.40;;;;;;5058798;28;20471;-63
2023/10/22 12:18:52;;;;;;;7.30;3.67;;;17.10;95.20;;;;;;5058310;28;20484;-65
2023/10/22 12:21:19;;;;;;;9.20;1.90;;;17.20;94.70;;;;;;5067043;28;20490;-65
2023/10/22 12:23:45;;;;;;;8.67;2.70;;;17.20;94.50;;;;;;5057023;28;20912;-65
2023/10/22 12:26:12;;;;;;;34.73;4.30;;;17.10;93.90;;;;;;5057951;28;20477;-66
2023/10/22 12:28:40;;;;;;;8.67;2.40;;;17.10;94.30;;;;;;5058061;28;20493;-66
2023/10/22 12:31:09;;;;;;;12.17;2.87;;;17.10;94.00;;;;;;5059269;28;20471;-67
2023/10/22 12:33:35;;;;;;;7.23;2.67;;;17.20;93.40;;;;;;5056363;28;20523;-66
2023/10/22 12:36:04;;;;;;;5.70;2.30;;;17.20;93.80;;;;;;5059040;28;20562;-66
2023/10/22 12:38:32;;;;;;;4.13;1.80;;;17.00;93.70;;;;;;5066444;28;20544;-62
2023/10/22 12:40:59;;;;;;;12.20;2.67;;;17.00;93.70;;;;;;5068796;28;20505;-63
2023/10/22 12:43:25;;;;;;;7.03;2.43;;;17.00;94.00;;;;;;5057486;28;20490;-61
2023/10/22 12:45:54;;;;;;;4.00;2.50;;;17.10;94.00;;;;;;5058863;28;20497;-61
2023/10/22 12:48:20;;;;;;;11.17;3.33;;;17.20;93.60;;;;;;5060572;28;20800;-64
2023/10/22 12:50:50;;;;;;;17.43;2.33;;;17.40;93.70;;;;;;5056837;28;20484;-62